Time;durP1;ratioP1;P1;durP2;ratioP2;P2;SDS_P1;SDS_P2;PMS_P1;PMS_P2;Temp;Humidity;BMP_temperature;BMP_pressure;BME280_temperature;BME280_humidity;BME280_pressure;Samples;Min_cycle;Max_cycle;Signal;HPM_P1;HPM_P2
2023/07/26 00:00:54;;;;;;;5.83;2.63;;;;;;;23.32;66.13;98756.19;4488097;31;33830;-76
2023/07/26 00:03:22;;;;;;;6.40;2.70;;;;;;;23.39;66.30;98753.41;4483737;31;32835;-75
2023/07/26 00:05:51;;;;;;;5.57;2.80;;;;;;;23.54;65.68;98753.03;4490583;31;33827;-74
2023/07/26 00:08:19;;;;;;;5.13;2.60;;;;;;;23.53;65.53;98754.81;4485833;31;33567;-78
2023/07/26 00:10:47;;;;;;;5.60;2.45;;;;;;;24.17;63.21;98761.16;4484775;31;34648;-74
2023/07/26 00:13:17;;;;;;;5.50;2.40;;;;;;;24.15;62.87;98753.25;4484701;31;34863;-76
2023/07/26 00:15:45;;;;;;;5.78;2.47;;;;;;;24.30;62.34;98744.03;4489213;31;33405;-74
2023/07/26 00:18:12;;;;;;;4.72;2.30;;;;;;;24.49;61.59;98729.38;4489019;31;33835;-76
2023/07/26 00:20:40;;;;;;;5.37;2.83;;;;;;;24.71;60.72;98739.34;4478497;31;32289;-77
2023/07/26 00:23:08;;;;;;;6.65;2.55;;;;;;;24.65;60.84;98736.88;4484531;31;33057;-78
2023/07/26 00:25:36;;;;;;;5.10;2.30;;;;;;;24.44;61.67;98725.97;4483571;31;33932;-76
2023/07/26 00:28:03;;;;;;;4.18;2.30;;;;;;;24.60;60.86;98704.38;4490284;31;34619;-76
2023/07/26 00:30:31;;;;;;;5.28;2.55;;;;;;;24.73;60.52;98695.16;4492571;31;33902;-76
2023/07/26 00:32:59;;;;;;;4.45;2.37;;;;;;;24.76;60.38;98688.88;4484956;31;33323;-74
2023/07/26 00:35:31;;;;;;;5.15;2.35;;;;;;;24.47;61.11;98667.66;4498016;31;34109;-77
2023/07/26 00:37:59;;;;;;;7.03;2.85;;;;;;;24.66;60.63;98667.13;4499704;31;33408;-77
2023/07/26 00:40:27;;;;;;;5.15;2.50;;;;;;;24.64;60.27;98659.22;4490684;31;34616;-74
2023/07/26 00:42:54;;;;;;;5.47;2.60;;;;;;;24.57;60.98;98647.09;4495803;31;33034;-76
2023/07/26 00:45:22;;;;;;;5.07;2.20;;;;;;;24.34;61.61;98645.13;4497586;31;33710;-77
2023/07/26 00:47:49;;;;;;;4.83;2.50;;;;;;;24.42;61.48;98647.53;4484024;31;35012;-75
2023/07/26 00:50:18;;;;;;;5.15;2.50;;;;;;;24.50;60.82;98629.63;4477366;31;33508;-75
2023/07/26 00:52:46;;;;;;;4.43;2.28;;;;;;;24.21;61.96;98622.56;4484380;31;33198;-76
2023/07/26 00:55:15;;;;;;;6.28;2.50;;;;;;;24.57;60.42;98620.63;4491754;31;33335;-76
2023/07/26 00:57:45;;;;;;;4.90;2.37;;;;;;;24.28;61.38;98618.81;4484773;31;33884;-74
2023/07/26 01:00:15;;;;;;;4.10;2.25;;;;;;;24.20;61.53;98626.12;4484849;31;34309;-77
2023/07/26 01:02:43;;;;;;;4.22;2.25;;;;;;;24.12;61.88;98619.25;4492022;31;33125;-78
2023/07/26 01:05:10;;;;;;;4.70;2.30;;;;;;;24.40;60.32;98617.59;4486707;31;33792;-74
2023/07/26 01:08:02;;;;;;;4.53;2.22;;;;;;;24.27;61.19;98614.44;4496832;31;33977;-77
2023/07/26 01:10:39;;;;;;;4.47;2.12;;;;;;;24.59;60.32;98612.59;4496800;31;33729;-74
2023/07/26 01:13:32;;;;;;;4.72;2.30;;;;;;;24.71;59.91;98601.66;4479914;31;31051;-76
2023/07/26 01:16:01;;;;;;;4.68;2.05;;;;;;;24.69;59.97;98598.19;4488606;31;33120;-75
2023/07/26 01:18:29;;;;;;;5.12;2.22;;;;;;;24.61;60.21;98589.59;4483501;31;33646;-77
2023/07/26 01:20:56;;;;;;;5.82;2.30;;;;;;;24.60;60.22;98572.00;4487539;31;33396;-75
2023/07/26 01:23:25;;;;;;;5.47;2.33;;;;;;;24.59;60.51;98559.66;4484414;31;33110;-74
2023/07/26 01:25:54;;;;;;;5.07;2.28;;;;;;;24.69;60.15;98563.75;4487782;31;33613;-75
2023/07/26 01:28:22;;;;;;;4.53;2.22;;;;;;;24.68;60.11;98575.25;4490827;31;34574;-75
2023/07/26 01:30:49;;;;;;;5.82;2.40;;;;;;;24.36;60.90;98587.72;4483614;31;33539;-75
2023/07/26 01:33:18;;;;;;;5.20;2.37;;;;;;;24.53;59.70;98577.50;4483383;31;33362;-75
2023/07/26 01:35:48;;;;;;;5.12;2.28;;;;;;;24.37;60.63;98562.97;4479224;31;34171;-76
2023/07/26 01:38:17;;;;;;;4.43;2.10;;;;;;;24.39;60.83;98536.44;4491891;31;33499;-77
2023/07/26 01:40:45;;;;;;;3.85;2.08;;;;;;;24.40;60.50;98535.56;4475596;32;33637;-75
2023/07/26 01:43:14;;;;;;;4.87;2.37;;;;;;;24.41;60.58;98543.41;4483419;31;33852;-75
2023/07/26 01:45:42;;;;;;;4.43;2.10;;;;;;;24.09;61.76;98561.16;4492327;31;34654;-76
2023/07/26 01:48:10;;;;;;;3.67;1.83;;;;;;;24.16;61.43;98568.91;4492075;31;33534;-78
2023/07/26 01:50:37;;;;;;;4.70;2.10;;;;;;;23.95;62.52;98581.84;4482972;31;33958;-76
2023/07/26 01:53:05;;;;;;;4.87;2.20;;;;;;;24.05;61.21;98593.91;4483206;31;33529;-75
2023/07/26 01:55:33;;;;;;;4.00;2.00;;;;;;;24.31;60.94;98613.44;4484201;31;33721;-75
2023/07/26 01:58:00;;;;;;;4.03;1.98;;;;;;;24.67;59.87;98605.31;4493297;31;34533;-75
2023/07/26 02:00:28;;;;;;;4.15;2.00;;;;;;;24.58;59.98;98608.25;4486879;31;33808;-75
2023/07/26 02:02:55;;;;;;;4.62;2.00;;;;;;;24.17;61.37;98615.63;4484149;31;33120;-75
2023/07/26 02:05:24;;;;;;;4.75;2.20;;;;;;;24.24;61.28;98612.75;4482676;31;34406;-78
2023/07/26 02:07:51;;;;;;;4.50;2.20;;;;;;;24.23;61.12;98620.75;4493321;31;33759;-77
2023/07/26 02:10:19;;;;;;;4.57;2.20;;;;;;;24.18;61.26;98630.59;4483537;31;33964;-77
2023/07/26 02:12:46;;;;;;;4.80;2.25;;;;;;;24.02;61.78;98624.88;4490636;31;33244;-74
2023/07/26 02:15:14;;;;;;;4.87;2.20;;;;;;;24.08;61.56;98629.97;4486908;31;33490;-76
2023/07/26 02:17:41;;;;;;;4.07;2.42;;;;;;;24.04;61.82;98631.84;4489528;31;33684;-74
2023/07/26 02:20:10;;;;;;;4.28;2.33;;;;;;;23.93;61.88;98644.50;4481454;31;33106;-77
2023/07/26 02:22:37;;;;;;;5.03;2.10;;;;;;;24.08;61.37;98644.06;4485586;31;34013;-77
2023/07/26 02:25:05;;;;;;;4.40;2.25;;;;;;;23.92;62.16;98643.66;4487911;31;34577;-76
2023/07/26 02:27:33;;;;;;;3.55;2.12;;;;;;;23.28;64.79;98648.84;4490432;31;35033;-77
2023/07/26 02:30:01;;;;;;;5.12;2.25;;;;;;;23.25;65.29;98661.25;4472696;31;33768;-75
2023/07/26 02:32:30;;;;;;;4.50;2.20;;;;;;;23.72;63.63;98651.22;4492095;31;33131;-74
2023/07/26 02:34:57;;;;;;;3.70;2.20;;;;;;;23.70;63.66;98653.94;4493756;31;33509;-74
2023/07/26 02:37:26;;;;;;;4.43;2.33;;;;;;;23.54;64.45;98657.88;4491530;31;34356;-76
2023/07/26 02:39:54;;;;;;;3.78;2.03;;;;;;;23.72;63.88;98656.50;4485565;31;33933;-74
2023/07/26 02:42:21;;;;;;;7.72;2.35;;;;;;;24.14;61.98;98659.78;4492545;31;33563;-76
2023/07/26 02:44:49;;;;;;;5.32;2.25;;;;;;;24.11;62.07;98665.16;4489593;31;33982;-75
2023/07/26 02:47:17;;;;;;;4.50;2.20;;;;;;;24.62;60.35;98649.59;4494378;31;33926;-77
2023/07/26 02:49:45;;;;;;;4.80;2.30;;;;;;;24.64;59.92;98653.91;4482572;31;33307;-76
2023/07/26 02:52:13;;;;;;;4.90;2.33;;;;;;;24.78;59.42;98644.69;4483413;31;33416;-76
2023/07/26 02:54:40;;;;;;;4.55;2.30;;;;;;;24.67;59.45;98650.31;4482593;31;33827;-77
2023/07/26 02:57:08;;;;;;;4.80;2.40;;;;;;;24.29;60.59;98647.03;4492448;31;34483;-77
2023/07/26 02:59:35;;;;;;;5.10;2.40;;;;;;;23.98;61.91;98637.31;4484836;31;34521;-77
2023/07/26 03:02:03;;;;;;;5.72;2.55;;;;;;;24.57;60.14;98643.56;4485130;31;33117;-76
2023/07/26 03:04:30;;;;;;;3.83;2.20;;;;;;;23.96;62.12;98641.78;4489774;31;34020;-76
2023/07/26 03:06:58;;;;;;;4.87;2.30;;;;;;;24.24;61.67;98633.03;4485702;31;33737;-76
2023/07/26 03:09:26;;;;;;;5.37;2.70;;;;;;;24.17;61.83;98644.75;4489987;31;34621;-77
2023/07/26 03:11:53;;;;;;;5.90;2.70;;;;;;;23.57;64.08;98641.94;4488403;31;34035;-74
2023/07/26 03:14:21;;;;;;;4.47;2.30;;;;;;;23.52;64.17;98638.53;4489944;31;33724;-76
2023/07/26 03:16:48;;;;;;;5.50;2.58;;;;;;;23.03;66.20;98645.09;4491316;31;33775;-74
2023/07/26 03:19:16;;;;;;;5.00;2.50;;;;;;;22.81;67.04;98642.91;4493878;31;33655;-75
2023/07/26 03:21:43;;;;;;;5.57;2.40;;;;;;;23.22;65.57;98646.38;4491421;31;33084;-77
2023/07/26 03:24:11;;;;;;;6.62;2.70;;;;;;;23.59;64.37;98642.75;4484498;31;33623;-76
2023/07/26 03:26:38;;;;;;;4.67;2.43;;;;;;;23.68;63.67;98650.47;4488597;31;34336;-75
2023/07/26 03:29:06;;;;;;;5.53;2.40;;;;;;;23.36;64.76;98651.28;4499743;31;34860;-74
2023/07/26 03:31:34;;;;;;;5.37;2.60;;;;;;;23.88;63.20;98662.31;4474657;31;33620;-76
2023/07/26 03:34:01;;;;;;;5.03;2.50;;;;;;;23.50;64.53;98665.00;4494811;31;33487;-77
2023/07/26 03:36:29;;;;;;;4.82;2.72;;;;;;;23.79;63.61;98673.13;4493764;31;33769;-74
2023/07/26 03:38:57;;;;;;;6.15;2.50;;;;;;;23.82;62.91;98667.75;4487420;31;33296;-74
2023/07/26 03:41:25;;;;;;;5.33;2.53;;;;;;;24.06;62.30;98669.69;4486635;31;33170;-74
2023/07/26 03:43:52;;;;;;;5.10;2.62;;;;;;;24.21;61.30;98681.63;4484140;31;33688;-75
2023/07/26 03:46:21;;;;;;;5.25;2.60;;;;;;;24.21;60.44;98691.38;4491092;31;33644;-75
2023/07/26 03:48:49;;;;;;;5.68;2.45;;;;;;;24.31;60.30;98703.41;4488685;31;34369;-75
2023/07/26 03:51:18;;;;;;;5.85;2.70;;;;;;;23.84;61.86;98714.41;4490185;31;33150;-73
2023/07/26 03:53:46;;;;;;;6.73;2.60;;;;;;;23.87;62.07;98718.72;4485496;31;34515;-74
2023/07/26 03:56:13;;;;;;;4.87;2.58;;;;;;;23.98;60.40;98714.03;4491493;31;33564;-75
2023/07/26 03:58:41;;;;;;;5.13;2.70;;;;;;;23.96;61.45;98713.19;4494467;31;34308;-75
2023/07/26 04:01:10;;;;;;;5.28;2.40;;;;;;;24.17;60.06;98721.47;4486649;31;33827;-75
2023/07/26 04:03:38;;;;;;;5.37;2.28;;;;;;;24.07;59.60;98721.72;4485220;31;34249;-76
2023/07/26 04:06:11;;;;;;;4.20;2.12;;;;;;;24.08;59.31;98712.00;4491264;31;33509;-77
2023/07/26 04:08:40;;;;;;;6.35;2.40;;;;;;;23.97;59.39;98714.94;4493927;31;33110;-76
2023/07/26 04:11:26;;;;;;;6.10;2.28;;;;;;;24.16;58.28;98722.38;4479874;32;33210;-75
2023/07/26 04:13:53;;;;;;;5.12;1.90;;;;;;;23.92;58.42;98708.91;4484099;31;33741;-75
2023/07/26 04:16:21;;;;;;;5.80;2.30;;;;;;;23.60;59.16;98715.84;4489475;31;33778;-76
2023/07/26 04:18:48;;;;;;;4.05;1.90;;;;;;;23.77;58.59;98722.50;4476529;32;32551;-77
2023/07/26 04:21:17;;;;;;;4.00;1.77;;;;;;;23.41;59.27;98731.34;4487058;31;33534;-74
2023/07/26 04:23:45;;;;;;;5.00;1.80;;;;;;;23.47;58.85;98733.81;4485997;31;34247;-76
2023/07/26 04:26:13;;;;;;;4.85;1.70;;;;;;;23.14;59.49;98738.13;4487255;31;33886;-76
2023/07/26 04:28:41;;;;;;;3.42;1.65;;;;;;;23.16;59.81;98741.63;4490970;31;33763;-77
2023/07/26 04:31:08;;;;;;;3.30;1.70;;;;;;;23.14;58.58;98738.13;4487932;31;33842;-76
2023/07/26 04:33:36;;;;;;;3.65;1.67;;;;;;;23.26;59.57;98731.69;4480670;31;33754;-76
2023/07/26 04:36:04;;;;;;;3.93;1.43;;;;;;;23.30;59.13;98728.06;4490006;31;33274;-75
2023/07/26 04:38:31;;;;;;;5.83;1.53;;;;;;;23.43;58.10;98723.34;4489205;31;33572;-75
2023/07/26 04:40:59;;;;;;;3.92;1.45;;;;;;;23.42;57.93;98726.91;4487306;31;33122;-75
2023/07/26 04:43:26;;;;;;;3.12;1.30;;;;;;;23.61;57.45;98722.03;4488844;31;34727;-77
2023/07/26 04:45:54;;;;;;;3.65;1.20;;;;;;;23.70;57.04;98720.03;4477695;31;34533;-77
2023/07/26 04:48:21;;;;;;;3.05;1.33;;;;;;;23.93;56.14;98723.84;4486510;31;33712;-75
2023/07/26 04:50:49;;;;;;;3.08;1.30;;;;;;;23.92;55.74;98722.13;4476049;32;33354;-77
2023/07/26 04:53:17;;;;;;;2.85;1.12;;;;;;;23.77;55.75;98728.66;4483859;31;33845;-75
2023/07/26 04:55:50;;;;;;;3.83;1.30;;;;;;;23.78;56.18;98729.50;4488023;31;33350;-75
2023/07/26 04:58:18;;;;;;;2.23;1.10;;;;;;;23.91;55.00;98730.97;4483615;31;33321;-76
2023/07/26 05:00:45;;;;;;;4.03;1.30;;;;;;;23.91;54.96;98734.50;4488451;31;33735;-74
2023/07/26 05:03:13;;;;;;;3.90;1.37;;;;;;;23.92;54.50;98728.28;4475241;31;34570;-76
2023/07/26 05:05:41;;;;;;;3.73;1.20;;;;;;;23.99;54.24;98728.09;4486096;31;33565;-73
2023/07/26 05:08:09;;;;;;;3.43;1.20;;;;;;;24.01;53.34;98723.66;4489758;31;34092;-75
2023/07/26 05:10:36;;;;;;;3.42;1.30;;;;;;;23.76;55.08;98729.56;4495509;31;33692;-76
2023/07/26 05:13:04;;;;;;;2.92;1.27;;;;;;;24.00;54.31;98728.06;4494756;31;33586;-75
2023/07/26 05:15:31;;;;;;;3.67;1.10;;;;;;;23.88;54.34;98726.63;4481376;31;33765;-77
2023/07/26 05:17:58;;;;;;;2.60;1.10;;;;;;;23.89;54.19;98728.37;4490492;31;34505;-76
2023/07/26 05:20:26;;;;;;;4.18;1.20;;;;;;;23.96;54.46;98728.22;4491075;31;33406;-75
2023/07/26 05:22:54;;;;;;;3.55;1.20;;;;;;;23.85;55.01;98736.41;4485164;31;33688;-77
2023/07/26 05:25:21;;;;;;;3.45;1.20;;;;;;;23.85;55.38;98733.78;4489557;31;34619;-75
2023/07/26 05:27:49;;;;;;;3.10;1.10;;;;;;;23.94;54.72;98738.81;4491812;31;33726;-76
2023/07/26 05:30:20;;;;;;;3.95;1.20;;;;;;;23.93;53.53;98735.31;4486954;31;33931;-74
2023/07/26 05:32:47;;;;;;;4.63;1.40;;;;;;;23.67;54.89;98741.25;4488761;31;32908;-73
2023/07/26 05:35:15;;;;;;;3.20;1.20;;;;;;;23.79;55.39;98747.16;4495213;31;33792;-73
2023/07/26 05:37:43;;;;;;;2.60;1.20;;;;;;;23.69;54.24;98744.72;4492344;31;33851;-75
2023/07/26 05:40:10;;;;;;;3.47;1.30;;;;;;;23.61;53.81;98741.41;4492881;31;33213;-74
2023/07/26 05:42:38;;;;;;;3.30;1.20;;;;;;;23.33;55.12;98750.03;4484877;31;33768;-74
2023/07/26 05:45:06;;;;;;;2.87;1.10;;;;;;;23.23;55.48;98748.47;4493555;31;33769;-76
2023/07/26 05:47:38;;;;;;;4.60;1.27;;;;;;;22.91;56.02;98752.69;4491428;31;34393;-78
2023/07/26 05:50:06;;;;;;;2.95;1.27;;;;;;;23.11;55.83;98756.69;4493517;31;32938;-78
2023/07/26 05:52:34;;;;;;;3.55;1.20;;;;;;;23.07;57.02;98762.97;4494143;31;33724;-75
2023/07/26 05:55:01;;;;;;;3.22;1.27;;;;;;;22.97;56.80;98765.75;4496390;31;34624;-77
2023/07/26 05:57:29;;;;;;;4.18;1.35;;;;;;;23.05;55.37;98752.41;4487026;31;34203;-74
2023/07/26 05:59:57;;;;;;;3.37;1.20;;;;;;;22.92;56.93;98764.97;4490426;31;33353;-76
2023/07/26 06:02:24;;;;;;;5.05;1.40;;;;;;;22.62;57.36;98761.25;4490541;31;33570;-75
2023/07/26 06:04:53;;;;;;;2.87;1.25;;;;;;;22.70;56.57;98763.72;4486441;31;33475;-78
2023/07/26 06:07:20;;;;;;;2.20;1.12;;;;;;;22.53;57.18;98772.84;4482799;31;34914;-77
2023/07/26 06:09:48;;;;;;;2.87;1.23;;;;;;;22.56;57.04;98766.63;4481111;31;32877;-76
2023/07/26 06:12:16;;;;;;;2.67;1.15;;;;;;;22.42;57.98;98785.38;4478562;32;33648;-77
2023/07/26 06:14:43;;;;;;;3.75;1.30;;;;;;;22.31;58.57;98776.81;4489664;31;33498;-78
2023/07/26 06:17:12;;;;;;;5.03;1.50;;;;;;;22.42;58.12;98785.38;4496226;31;34000;-76
2023/07/26 06:19:41;;;;;;;3.17;1.17;;;;;;;22.38;57.12;98783.72;4485848;31;32751;-76
2023/07/26 06:22:09;;;;;;;2.87;1.23;;;;;;;22.47;57.78;98783.53;4489166;31;33789;-77
2023/07/26 06:24:37;;;;;;;3.80;1.25;;;;;;;22.50;57.03;98786.12;4488552;31;33915;-77
2023/07/26 06:27:05;;;;;;;2.85;1.10;;;;;;;22.47;57.18;98778.25;4496105;31;33796;-77
2023/07/26 06:29:35;;;;;;;2.40;1.10;;;;;;;22.21;59.15;98781.34;4488076;31;33364;-75
2023/07/26 06:32:03;;;;;;;2.97;1.00;;;;;;;22.35;58.44;98778.50;4474399;31;31960;-76
2023/07/26 06:34:31;;;;;;;3.93;1.30;;;;;;;22.43;58.95;98784.50;4493900;31;33593;-76
2023/07/26 06:36:58;;;;;;;2.77;1.33;;;;;;;22.53;58.91;98793.97;4492138;31;34703;-78
2023/07/26 06:39:28;;;;;;;2.67;1.23;;;;;;;22.53;59.85;98804.50;4487167;31;33924;-75
2023/07/26 06:41:56;;;;;;;4.10;1.45;;;;;;;22.65;59.41;98810.47;4496216;31;34106;-77
2023/07/26 06:44:24;;;;;;;3.40;1.17;;;;;;;22.54;59.08;98806.28;4493978;31;33968;-75
2023/07/26 06:46:51;;;;;;;4.82;1.40;;;;;;;22.67;59.14;98812.16;4493792;31;34603;-76
2023/07/26 06:49:19;;;;;;;3.28;1.50;;;;;;;22.65;59.36;98818.38;4481311;31;32288;-75
2023/07/26 06:51:50;;;;;;;3.27;1.43;;;;;;;22.49;59.45;98817.81;4487329;31;33882;-74
2023/07/26 06:54:18;;;;;;;3.35;1.30;;;;;;;22.42;60.48;98822.31;4491138;31;33325;-77
2023/07/26 06:56:47;;;;;;;6.35;2.40;;;;;;;22.36;60.72;98819.81;4493291;31;33709;-74
2023/07/26 06:59:16;;;;;;;6.37;3.25;;;;;;;22.54;60.80;98822.09;4487532;31;33634;-74
2023/07/26 07:01:44;;;;;;;4.50;1.75;;;;;;;22.70;59.86;98829.72;4487650;31;34355;-76
2023/07/26 07:04:12;;;;;;;4.87;1.80;;;;;;;22.87;60.29;98840.81;4488467;31;34481;-75
2023/07/26 07:06:43;;;;;;;5.05;1.80;;;;;;;23.06;59.08;98843.94;4486493;31;33449;-76
2023/07/26 07:09:12;;;;;;;5.37;1.60;;;;;;;23.06;60.38;98851.88;4485631;31;33847;-76
2023/07/26 07:11:39;;;;;;;4.25;1.45;;;;;;;23.08;59.53;98846.56;4492726;31;33199;-75
2023/07/26 07:14:07;;;;;;;3.20;1.33;;;;;;;22.82;60.53;98853.22;4490044;31;34462;-73
2023/07/26 07:16:38;;;;;;;4.50;1.50;;;;;;;23.02;59.41;98846.66;4489924;31;33520;-75
2023/07/26 07:19:06;;;;;;;4.15;1.40;;;;;;;23.11;58.56;98854.44;4483148;31;33260;-74
2023/07/26 07:21:33;;;;;;;3.33;1.40;;;;;;;23.12;59.63;98853.50;4484378;31;34768;-74
2023/07/26 07:24:02;;;;;;;3.25;1.30;;;;;;;23.36;58.85;98855.63;4490515;31;33096;-75
2023/07/26 07:26:48;;;;;;;3.80;1.40;;;;;;;23.38;57.16;98857.37;4493318;31;33334;-76
2023/07/26 07:29:15;;;;;;;4.18;1.42;;;;;;;23.06;58.06;98853.66;4495844;31;33163;-75
2023/07/26 07:31:43;;;;;;;2.83;1.10;;;;;;;22.35;60.71;98869.06;4493144;31;33923;-74
2023/07/26 07:34:11;;;;;;;3.12;1.30;;;;;;;22.16;60.09;98857.94;4488341;31;34635;-74
2023/07/26 07:36:38;;;;;;;3.13;1.40;;;;;;;21.86;61.40;98867.22;4489590;31;33772;-74
2023/07/26 07:39:09;;;;;;;4.15;1.30;;;;;;;21.91;62.08;98872.44;4483416;31;33373;-77
2023/07/26 07:41:37;;;;;;;3.50;1.40;;;;;;;21.80;62.19;98870.81;4495457;31;33699;-75
2023/07/26 07:44:04;;;;;;;4.50;1.50;;;;;;;21.84;62.95;98881.34;4492371;31;33690;-77
2023/07/26 07:46:32;;;;;;;3.80;2.15;;;;;;;21.55;64.68;98872.09;4493388;31;33221;-75
2023/07/26 07:49:00;;;;;;;4.82;1.55;;;;;;;21.56;65.12;98889.66;4495112;31;32988;-76
2023/07/26 07:51:27;;;;;;;6.10;1.52;;;;;;;21.63;65.87;98891.28;4472559;32;32122;-75
2023/07/26 07:53:55;;;;;;;3.95;1.58;;;;;;;21.72;65.83;98899.06;4484875;31;33607;-75
2023/07/26 07:56:23;;;;;;;3.47;1.33;;;;;;;21.92;64.44;98895.25;4483879;31;35125;-75
2023/07/26 07:58:50;;;;;;;3.90;1.50;;;;;;;21.82;65.09;98894.53;4484396;31;33976;-76
2023/07/26 08:01:18;;;;;;;3.00;1.60;;;;;;;21.87;65.27;98891.84;4496995;31;33470;-75
2023/07/26 08:03:46;;;;;;;2.83;1.37;;;;;;;22.25;63.21;98893.00;4491867;31;33794;-76
2023/07/26 08:06:14;;;;;;;5.33;1.60;;;;;;;22.04;64.33;98899.47;4492150;31;33785;-75
2023/07/26 08:08:41;;;;;;;4.73;1.57;;;;;;;22.09;64.47;98909.03;4493483;31;33039;-75
2023/07/26 08:11:09;;;;;;;4.18;1.60;;;;;;;22.22;64.00;98906.22;4483722;31;34360;-75
2023/07/26 08:13:37;;;;;;;4.40;1.53;;;;;;;22.35;62.82;98894.59;4495286;31;34512;-76
2023/07/26 08:16:04;;;;;;;3.15;1.50;;;;;;;22.19;63.39;98894.81;4488713;31;34267;-76
2023/07/26 08:18:32;;;;;;;3.42;1.60;;;;;;;22.10;63.35;98902.03;4487921;31;32930;-76
2023/07/26 08:21:02;;;;;;;3.75;1.80;;;;;;;22.25;62.20;98900.91;4478554;31;33447;-75
2023/07/26 08:23:30;;;;;;;3.65;1.80;;;;;;;22.49;61.69;98892.56;4470862;31;33218;-75
2023/07/26 08:26:03;;;;;;;3.37;1.62;;;;;;;22.52;60.57;98887.25;4496306;31;33745;-76
2023/07/26 08:28:30;;;;;;;3.90;1.70;;;;;;;22.36;61.45;98891.03;4499387;31;33061;-75
2023/07/26 08:30:59;;;;;;;4.07;1.80;;;;;;;22.38;61.50;98905.06;4487500;31;33733;-76
2023/07/26 08:33:26;;;;;;;3.47;1.77;;;;;;;22.23;61.66;98914.09;4483957;31;33866;-75
2023/07/26 08:35:55;;;;;;;4.30;1.80;;;;;;;22.19;62.03;98918.56;4497472;31;33851;-74
2023/07/26 08:38:26;;;;;;;4.37;1.80;;;;;;;21.90;62.95;98918.13;4497142;31;33071;-75
2023/07/26 08:40:53;;;;;;;3.55;1.80;;;;;;;21.93;63.33;98908.41;4487311;31;34278;-76
2023/07/26 08:43:23;;;;;;;3.80;1.75;;;;;;;22.05;62.93;98931.09;4496599;31;33943;-75
2023/07/26 08:45:51;;;;;;;3.60;1.80;;;;;;;22.02;62.82;98920.59;4485930;31;33438;-76
2023/07/26 08:48:21;;;;;;;3.28;1.85;;;;;;;21.90;63.07;98923.41;4489598;31;33045;-76
2023/07/26 08:50:49;;;;;;;4.65;1.65;;;;;;;21.82;61.92;98941.97;4480622;31;33704;-74
2023/07/26 08:53:16;;;;;;;3.17;1.70;;;;;;;21.70;62.75;98936.91;4485199;31;33398;-77
2023/07/26 08:55:44;;;;;;;3.58;1.60;;;;;;;21.79;62.02;98942.91;4495598;31;33909;-77
2023/07/26 08:58:11;;;;;;;4.12;1.60;;;;;;;21.83;62.44;98942.84;4468960;32;32774;-76
2023/07/26 09:00:40;;;;;;;3.40;1.58;;;;;;;21.88;61.69;98946.28;4483276;32;35268;-76
2023/07/26 09:03:10;;;;;;;3.90;1.90;;;;;;;21.75;60.81;98941.22;4483621;31;33768;-76
2023/07/26 09:05:38;;;;;;;3.97;1.80;;;;;;;21.45;61.89;98963.56;4481622;32;33716;-75
2023/07/26 09:08:07;;;;;;;4.53;1.70;;;;;;;21.44;62.93;98956.56;4474307;32;33289;-75
2023/07/26 09:10:34;;;;;;;3.53;1.58;;;;;;;21.63;61.62;98967.72;4480220;32;33710;-75
2023/07/26 09:13:08;;;;;;;3.42;1.62;;;;;;;21.49;62.44;98967.03;4482750;32;33788;-74
2023/07/26 09:15:40;;;;;;;3.30;1.58;;;;;;;21.59;61.91;98981.84;4471279;32;34184;-75
2023/07/26 09:18:09;;;;;;;4.15;1.90;;;;;;;21.73;61.89;98979.91;4479453;32;33895;-75
2023/07/26 09:20:37;;;;;;;3.85;1.65;;;;;;;21.86;61.76;98982.34;4476763;32;34308;-75
2023/07/26 09:23:05;;;;;;;3.83;1.80;;;;;;;21.75;61.78;98967.56;4482812;32;33759;-75
2023/07/26 09:25:38;;;;;;;2.97;1.63;;;;;;;21.70;62.85;98966.75;4470179;32;33391;-75
2023/07/26 09:28:10;;;;;;;4.87;1.80;;;;;;;21.87;62.84;98958.63;4483450;32;32889;-75
2023/07/26 09:30:40;;;;;;;3.30;1.70;;;;;;;22.15;61.03;98956.41;4483209;32;33302;-75
2023/07/26 09:33:10;;;;;;;3.92;1.70;;;;;;;22.28;60.23;98961.53;4482747;32;32517;-75
2023/07/26 09:35:49;;;;;;;3.80;1.60;;;;;;;22.40;60.11;98961.31;4482278;32;33427;-75
2023/07/26 09:38:26;;;;;;;3.35;1.60;;;;;;;22.60;60.63;98962.75;4482946;32;32606;-75
2023/07/26 09:40:53;;;;;;;3.20;1.40;;;;;;;22.59;59.60;98956.63;4483086;32;32949;-76
2023/07/26 09:43:29;;;;;;;3.53;1.73;;;;;;;22.77;60.11;98950.13;4467528;32;33618;-75
2023/07/26 09:46:04;;;;;;;3.72;1.80;;;;;;;22.96;58.67;98945.38;4483165;32;33035;-75
2023/07/26 09:48:56;;;;;;;3.00;1.60;;;;;;;23.17;57.40;98933.53;4482888;32;33243;-76
2023/07/26 09:51:29;;;;;;;2.85;1.65;;;;;;;23.29;57.40;98946.50;4481860;32;33357;-75
2023/07/26 09:53:58;;;;;;;3.97;1.60;;;;;;;23.36;56.92;98939.31;4482769;32;33217;-76
2023/07/26 09:56:33;;;;;;;4.30;1.70;;;;;;;23.33;57.42;98950.84;4482086;32;33712;-75
2023/07/26 09:59:01;;;;;;;2.97;1.73;;;;;;;22.87;58.41;98957.00;4481833;32;33479;-75
2023/07/26 10:01:30;;;;;;;3.60;1.90;;;;;;;23.26;57.71;98965.06;4481648;32;33739;-76
2023/07/26 10:04:00;;;;;;;4.80;1.77;;;;;;;23.29;57.14;98959.72;4452332;31;787563;-76
2023/07/26 10:06:29;;;;;;;3.28;1.50;;;;;;;23.19;57.54;98952.88;4480146;31;33057;-76
2023/07/26 10:08:59;;;;;;;4.55;1.60;;;;;;;23.16;57.93;98952.97;4489077;31;33357;-74
2023/07/26 10:11:28;;;;;;;3.17;1.40;;;;;;;23.06;58.10;98961.94;4491531;31;33466;-75
2023/07/26 10:13:59;;;;;;;4.57;1.93;;;;;;;22.85;58.34;98964.06;4486614;31;33511;-76
2023/07/26 10:16:28;;;;;;;4.00;1.92;;;;;;;23.12;58.12;98956.53;4483336;31;34008;-75
2023/07/26 10:18:57;;;;;;;2.90;1.50;;;;;;;23.05;59.18;98970.78;4480717;31;32872;-75
2023/07/26 10:21:26;;;;;;;3.70;1.58;;;;;;;23.22;58.11;98968.69;4470930;31;32411;-74
2023/07/26 10:23:57;;;;;;;2.63;1.60;;;;;;;23.03;58.59;98965.53;4484117;31;34861;-76
2023/07/26 10:26:33;;;;;;;3.60;1.77;;;;;;;23.01;59.28;98977.00;4484497;31;33743;-76
2023/07/26 10:29:02;;;;;;;3.70;1.75;;;;;;;23.04;58.45;98969.03;4487954;31;33351;-75
2023/07/26 10:31:30;;;;;;;3.25;1.80;;;;;;;22.70;58.06;98980.19;4490330;31;34289;-75
2023/07/26 10:33:58;;;;;;;3.10;2.00;;;;;;;22.67;58.80;98974.97;4475763;31;33850;-75
2023/07/26 10:36:33;;;;;;;3.57;1.83;;;;;;;22.47;58.42;98960.34;4493914;31;33315;-76
2023/07/26 10:39:05;;;;;;;3.75;1.90;;;;;;;22.36;58.91;98975.47;4493446;31;32694;-75
2023/07/26 10:41:34;;;;;;;3.85;2.17;;;;;;;22.43;58.66;98977.13;4471026;31;33401;-77
2023/07/26 10:44:07;;;;;;;3.30;1.95;;;;;;;22.54;58.00;98972.53;4461478;31;31999;-76
2023/07/26 10:46:55;;;;;;;3.35;2.12;;;;;;;22.40;58.25;98979.78;4470253;31;32581;-76
2023/07/26 10:49:27;;;;;;;3.85;2.00;;;;;;;22.25;58.64;98980.03;4483404;31;32105;-76
2023/07/26 10:52:02;;;;;;;4.50;2.10;;;;;;;22.34;58.05;98979.91;4491323;31;31917;-76
2023/07/26 10:54:34;;;;;;;3.80;2.10;;;;;;;22.39;58.28;98975.44;4473912;32;33969;-75
2023/07/26 10:57:27;;;;;;;5.95;1.95;;;;;;;22.19;58.09;98983.62;4484376;31;33074;-75
2023/07/26 11:00:04;;;;;;;3.60;2.08;;;;;;;22.18;59.41;98988.03;4485032;31;33410;-76
2023/07/26 11:02:48;;;;;;;4.40;1.98;;;;;;;22.45;58.02;98982.38;4494370;31;33063;-74
2023/07/26 11:05:18;;;;;;;5.28;1.70;;;;;;;22.49;56.31;98987.56;4484834;31;33612;-75
2023/07/26 11:08:01;;;;;;;3.33;2.00;;;;;;;22.37;57.43;98988.66;4490248;31;34030;-75
2023/07/26 11:10:36;;;;;;;3.28;1.87;;;;;;;22.31;57.50;98987.84;4488027;31;33272;-76
2023/07/26 11:13:18;;;;;;;3.72;1.90;;;;;;;22.36;56.84;98986.03;4483857;31;32943;-75
2023/07/26 11:15:47;;;;;;;3.25;1.85;;;;;;;22.42;57.49;98985.91;4481936;31;32634;-76
2023/07/26 11:18:40;;;;;;;4.43;2.25;;;;;;;22.40;56.58;98987.72;4493710;31;32760;-76
2023/07/26 11:21:13;;;;;;;3.95;2.15;;;;;;;22.40;57.74;98987.72;4481232;31;31486;-76
2023/07/26 11:23:41;;;;;;;3.50;1.90;;;;;;;22.65;56.87;98987.31;4488699;31;33171;-76
2023/07/26 11:26:08;;;;;;;5.12;1.90;;;;;;;22.58;56.52;98992.69;4490911;31;34644;-76
2023/07/26 11:28:36;;;;;;;3.17;1.80;;;;;;;22.52;56.75;98987.53;4489863;31;33915;-76
2023/07/26 11:31:04;;;;;;;3.50;1.80;;;;;;;22.48;56.60;98985.81;4485415;31;33110;-75
2023/07/26 11:33:36;;;;;;;3.62;1.90;;;;;;;22.51;56.87;98985.78;4488579;31;34480;-75
2023/07/26 11:36:10;;;;;;;4.00;2.00;;;;;;;22.57;57.25;98980.37;4476619;31;33452;-76
2023/07/26 11:38:43;;;;;;;3.70;1.90;;;;;;;22.85;55.68;98972.00;4466158;32;33281;-75
2023/07/26 11:41:20;;;;;;;2.83;1.60;;;;;;;22.67;56.16;98974.97;4482852;31;32805;-75
2023/07/26 11:43:51;;;;;;;2.62;1.65;;;;;;;23.00;55.15;98968.19;4474721;31;32835;-74